F/V Si — FGYP — position and weather

sailwx.info

Track history (hours):
 
Tides and Currents Weather Stations Pressure Air Temp Water Temp Dewpoint Dewpoint Depression Visibility Wind Speed Wind Dir Waves Ship Positions

F/V Si

Last reported at 2018-Feb-25 09:30 UTC. Time now 2018-Feb-25 09:56 UTC.
Position N 44°56' W 001°23'.

Type: Fishing. MMSI: 227442000.

Date/timePositionNaut miles runAvg speedWind from/ knotsBaromVisibWave heightAir tempDewpointWater temp
2018-Feb-25 09:30N 44°56' W 001°23'4 0.1
2018-Feb-23 10:29N 44°54' W 001°28'2 1.0
2018-Feb-23 08:56N 44°54' W 001°26'6 1.7
2018-Feb-23 05:09N 44°57' W 001°34'2 4.9
2018-Feb-23 04:42N 44°55' W 001°34'0 1.8
2018-Feb-23 04:29N 44°54' W 001°34'0 0.3
2018-Feb-23 04:00N 44°54' W 001°34'10 1.4
2018-Feb-22 20:45N 44°55' W 001°20'1 5.0
2018-Feb-22 20:31N 44°55' W 001°18'1 1.9
2018-Feb-22 20:01N 44°55' W 001°20'1 2.1
2018-Feb-22 19:29N 44°55' W 001°21'3 6.0
2018-Feb-22 19:00N 44°55' W 001°25'6 7.9
2018-Feb-22 18:13N 44°57' W 001°34'4 1.4
2018-Feb-22 15:16N 44°54' W 001°29'2 8.4
2018-Feb-22 15:00N 44°56' W 001°29'2 1.2
2018-Feb-22 13:46N 44°54' W 001°28'2 2.2
2018-Feb-22 12:57N 44°53' W 001°27'2 3.6
2018-Feb-22 12:30N 44°53' W 001°24'4 8.4
2018-Feb-22 12:00N 44°55' W 001°19'2 3.4
2018-Feb-22 11:30N 44°56' W 001°17'1 2.5
2018-Feb-22 11:00N 44°56' W 001°18'1 0.8
2018-Feb-22 09:39N 44°55' W 001°20'1 8.9
2018-Feb-22 09:30N 44°56' W 001°19'2 4.5
2018-Feb-22 09:00N 44°58' W 001°17'1 2.8
2018-Feb-22 08:30N 44°58' W 001°19'3 1.7
2018-Feb-22 06:30N 44°56' W 001°23'4 7.9
2018-Feb-22 06:00N 44°54' W 001°28'3 1.6
2018-Feb-22 04:09N 44°55' W 001°31'0 1.6
2018-Feb-22 03:57N 44°55' W 001°32'1 1.6
2018-Feb-22 03:24N 44°54' W 001°32'1 1.8
2018-Feb-22 03:00N 44°54' W 001°32'1 1.5
2018-Feb-22 02:30N 44°53' W 001°32'1 1.2
2018-Feb-22 02:00N 44°52' W 001°33'3 5.8
2018-Feb-22 01:30N 44°55' W 001°32'1 0.7
2018-Feb-22 00:35N 44°56' W 001°32'0 4.5
2018-Feb-22 00:30N 44°56' W 001°33'2 4.2
2018-Feb-22 00:00N 44°54' W 001°34'2 4.3
2018-Feb-21 23:30N 44°52' W 001°36'1 0.6
2018-Feb-21 22:04N 44°51' W 001°36'0 1.4
2018-Feb-21 21:49N 44°51' W 001°35'1 1.4
2018-Feb-21 21:13N 44°52' W 001°34'0 1.5
2018-Feb-21 21:00N 44°52' W 001°34'1 1.6
2018-Feb-21 20:30N 44°53' W 001°33'1 1.5
2018-Feb-21 20:00N 44°53' W 001°33'2 1.4
2018-Feb-21 18:56N 44°55' W 001°32'0 0.2
2018-Feb-21 16:26N 44°55' W 001°31'0 1.1
2018-Feb-21 16:00N 44°55' W 001°32'1 1.0
2018-Feb-21 15:26N 44°55' W 001°32'6 8.0
2018-Feb-21 14:42N 44°55' W 001°24'2 8.3
2018-Feb-21 14:30N 44°55' W 001°21'0 0.3
2018-Feb-21 13:57N 44°55' W 001°21'3 6.3
2018-Feb-21 13:30N 44°56' W 001°18'2 4.4
2018-Feb-21 13:00N 44°58' W 001°16'4 4.7
2018-Feb-21 12:07N 44°56' W 001°22'1 8.0
2018-Feb-21 11:58N 44°57' W 001°21'4 8.7
2018-Feb-21 11:30N 45°01' W 001°20'2 2.7
2018-Feb-21 10:35N 44°59' W 001°19'0 1.9
2018-Feb-21 10:20N 44°58' W 001°19'1 2.5
2018-Feb-21 09:57N 44°57' W 001°19'1 2.4
2018-Feb-21 09:26N 44°56' W 001°20'2 4.9
2018-Feb-21 09:00N 44°56' W 001°17'1 1.6
2018-Feb-21 08:30N 44°55' W 001°17'1 2.8
2018-Feb-21 07:58N 44°56' W 001°16'1 2.9
2018-Feb-21 07:30N 44°54' W 001°15'1 2.6
2018-Feb-21 07:00N 44°53' W 001°16'1 2.3
2018-Feb-21 06:30N 44°52' W 001°15'1 2.6
2018-Feb-21 06:00N 44°51' W 001°16'1 2.7
2018-Feb-21 05:31N 44°49' W 001°16'1 2.2
2018-Feb-21 05:00N 44°48' W 001°16'2 4.9
2018-Feb-21 04:30N 44°50' W 001°19'2 3.1
2018-Feb-21 04:00N 44°48' W 001°19'0 0.7
2018-Feb-21 03:30N 44°48' W 001°19'1 1.3
2018-Feb-21 03:00N 44°49' W 001°19'1 1.3
2018-Feb-21 02:30N 44°50' W 001°19'1 1.2
2018-Feb-21 02:00N 44°50' W 001°19'1 1.2
2018-Feb-21 01:23N 44°51' W 001°19'0 1.2
2018-Feb-21 01:01N 44°51' W 001°19'1 1.2
2018-Feb-21 00:30N 44°52' W 001°18'1 1.3
2018-Feb-21 00:00N 44°53' W 001°18'1 1.4
2018-Feb-20 23:30N 44°53' W 001°18'1 1.6
2018-Feb-20 23:00N 44°54' W 001°18'1 1.6
2018-Feb-20 22:31N 44°55' W 001°18'1 1.5
2018-Feb-20 22:00N 44°56' W 001°18'1 1.6
2018-Feb-20 21:30N 44°56' W 001°18'1 1.4
2018-Feb-20 21:00N 44°57' W 001°18'1 1.3
2018-Feb-20 20:30N 44°58' W 001°18'1 1.4
2018-Feb-20 20:00N 44°59' W 001°18'1 1.3
2018-Feb-20 19:30N 44°59' W 001°18'1 1.3
2018-Feb-20 19:00N 44°60' W 001°18'1 1.7
2018-Feb-20 18:24N 45°01' W 001°17'4 5.4
2018-Feb-20 17:38N 44°57' W 001°15'1 7.1
2018-Feb-20 17:30N 44°56' W 001°15'4 7.2
2018-Feb-20 17:00N 44°52' W 001°16'4 7.1
2018-Feb-20 16:30N 44°49' W 001°16'3 6.4
2018-Feb-20 16:00N 44°52' W 001°15'4 7.8
2018-Feb-20 15:30N 44°56' W 001°16'4 8.5
2018-Feb-20 15:00N 44°60' W 001°16'2 1.7
2018-Feb-20 13:51N 44°58' W 001°17'1 2.9
2018-Feb-20 13:30N 44°57' W 001°17'2 4.5
2018-Feb-20 13:00N 44°55' W 001°17'1 2.3
2018-Feb-20 12:30N 44°55' W 001°16'0 1.0
2018-Feb-20 12:00N 44°54' W 001°16'4 8.6
2018-Feb-20 11:30N 44°59' W 001°16'0 0.3
2018-Feb-20 10:06N 44°59' W 001°15'0 3.1
2018-Feb-20 09:59N 44°58' W 001°15'2 3.0
2018-Feb-20 09:22N 44°57' W 001°16'2 4.3
2018-Feb-20 09:00N 44°56' W 001°18'2 4.9
2018-Feb-20 08:30N 44°58' W 001°20'3 1.9
2018-Feb-20 07:05N 44°56' W 001°17'0 2.1
2018-Feb-20 07:00N 44°56' W 001°17'1 1.1
2018-Feb-20 06:30N 44°57' W 001°17'1 1.2
2018-Feb-20 06:00N 44°57' W 001°17'1 1.2
2018-Feb-20 05:30N 44°58' W 001°17'1 1.2
2018-Feb-20 05:01N 44°58' W 001°17'1 1.1
2018-Feb-20 04:30N 44°59' W 001°17'0 1.0
2018-Feb-20 04:00N 44°59' W 001°18'0 0.9
2018-Feb-20 03:30N 44°60' W 001°18'0 0.9
2018-Feb-20 03:00N 45°00' W 001°18'1 2.4
2018-Feb-20 02:23N 44°59' W 001°18'2 6.0
2018-Feb-20 02:00N 44°59' W 001°15'3 5.2
2018-Feb-20 01:29N 44°56' W 001°15'2 4.1
2018-Feb-20 01:00N 44°58' W 001°17'4 6.6
2018-Feb-20 00:28N 45°01' W 001°16'6 5.5
2018-Feb-19 23:27N 44°56' W 001°16'1 1.9
2018-Feb-19 23:00N 44°55' W 001°16'2 4.2
2018-Feb-19 22:30N 44°53' W 001°17'4 7.1
2018-Feb-19 22:00N 44°50' W 001°17'4 7.0
2018-Feb-19 21:30N 44°46' W 001°18'3 7.0
2018-Feb-19 21:00N 44°43' W 001°18'3 6.8
2018-Feb-19 20:30N 44°39' W 001°19'3 6.6
2018-Feb-19 20:00N 44°36' W 001°19'3 5.1
2018-Feb-19 19:30N 44°34' W 001°16'4 8.3
2018-Feb-19 19:00N 44°38' W 001°14'4 7.5
2018-Feb-19 18:31N 44°40' W 001°09'1 1.5
2018-Feb-19 18:00N 44°39' W 001°09'0 0.0
2018-Feb-19 17:30N 44°39' W 001°09'0 0.0
2018-Feb-19 17:00N 44°39' W 001°09'0 0.0
2018-Feb-19 16:30N 44°39' W 001°09'0 0.0
2018-Feb-19 16:00N 44°39' W 001°09'0 0.0
2018-Feb-19 15:30N 44°39' W 001°09'0 0.0
2018-Feb-19 15:00N 44°39' W 001°09'0 0.0
2018-Feb-19 14:30N 44°39' W 001°09'0 0.0
2018-Feb-19 14:00N 44°39' W 001°09'0 0.0
2018-Feb-19 13:30N 44°39' W 001°09'0 0.0
2018-Feb-19 13:00N 44°39' W 001°09'0 0.0
2018-Feb-19 12:30N 44°39' W 001°09'0 0.0
2018-Feb-19 12:00N 44°39' W 001°09'0 0.0
2018-Feb-19 11:30N 44°39' W 001°09'0 0.0
2018-Feb-19 11:00N 44°39' W 001°09'0 0.0
2018-Feb-19 10:30N 44°39' W 001°09'0 0.0
2018-Feb-19 10:00N 44°39' W 001°09'0 0.0
2018-Feb-19 09:30N 44°39' W 001°09'0 0.0
2018-Feb-19 09:00N 44°39' W 001°09'0 0.0
2018-Feb-19 08:30N 44°39' W 001°09'0 0.0
2018-Feb-19 08:00N 44°39' W 001°09'0 0.0
2018-Feb-19 07:30N 44°39' W 001°09'0 0.0
2018-Feb-19 07:00N 44°39' W 001°09'0 0.0
2018-Feb-19 06:30N 44°39' W 001°09'0 0.0
2018-Feb-19 06:00N 44°39' W 001°09'0 0.1
2018-Feb-19 05:30N 44°39' W 001°09'3 6.9
2018-Feb-19 05:00N 44°39' W 001°14'5 9.2
2018-Feb-19 04:30N 44°34' W 001°16'3 5.2
2018-Feb-19 04:00N 44°33' W 001°19'0 0.7
2018-Feb-19 03:30N 44°33' W 001°19'0 0.7
2018-Feb-19 03:01N 44°33' W 001°20'0 0.5
2018-Feb-19 02:30N 44°33' W 001°20'0 0.5
2018-Feb-19 02:01N 44°33' W 001°20'2 4.3
2018-Feb-19 01:30N 44°32' W 001°23'2 4.4
2018-Feb-19 01:00N 44°30' W 001°25'2 4.4
2018-Feb-19 00:31N 44°29' W 001°28'2 4.1
2018-Feb-19 00:00N 44°28' W 001°30'2 4.4
2018-Feb-18 23:30N 44°27' W 001°33'2 4.2
2018-Feb-18 23:01N 44°27' W 001°36'2 2.9
2018-Feb-18 22:29N 44°26' W 001°38'1 1.3
2018-Feb-18 21:59N 44°26' W 001°38'1 1.6
2018-Feb-18 21:29N 44°25' W 001°37'1 1.7
2018-Feb-18 21:00N 44°24' W 001°37'1 1.6
2018-Feb-18 20:30N 44°23' W 001°37'3 4.6
2018-Feb-18 19:46N 44°27' W 001°36'0 1.3
2018-Feb-18 19:30N 44°26' W 001°36'1 1.7
2018-Feb-18 19:00N 44°26' W 001°36'1 1.6
2018-Feb-18 18:30N 44°25' W 001°37'2 2.1
2018-Feb-18 17:21N 44°25' W 001°33'0 1.0
2018-Feb-18 17:00N 44°25' W 001°33'2 0.7
2018-Feb-18 13:40N 44°27' W 001°35'0 2.1
2018-Feb-18 13:26N 44°27' W 001°34'0 1.1
2018-Feb-18 13:00N 44°27' W 001°34'1 1.1
2018-Feb-18 12:31N 44°27' W 001°34'1 1.0
2018-Feb-18 12:00N 44°27' W 001°35'1 1.0
2018-Feb-18 11:31N 44°27' W 001°36'0 0.6
2018-Feb-18 11:00N 44°27' W 001°36'1 2.2
2018-Feb-18 10:24N 44°26' W 001°37'1 3.9
2018-Feb-18 10:00N 44°25' W 001°37'2 3.2
2018-Feb-18 09:13N 44°26' W 001°34'2 7.4
2018-Feb-18 08:59N 44°27' W 001°32'4 7.6
2018-Feb-18 08:30N 44°29' W 001°28'4 7.7
2018-Feb-18 08:00N 44°32' W 001°24'3 6.9
2018-Feb-18 07:30N 44°33' W 001°20'4 7.0
2018-Feb-18 07:00N 44°35' W 001°15'5 9.1
2018-Feb-18 06:30N 44°39' W 001°13'3 6.7
2018-Feb-18 06:00N 44°40' W 001°09'0 0.2
2018-Feb-18 05:30N 44°39' W 001°09'0 0.2
2018-Feb-18 05:00N 44°39' W 001°09'0 0.0
2018-Feb-18 04:30N 44°39' W 001°09'0 0.0
2018-Feb-18 03:59N 44°39' W 001°09'0 0.0
2018-Feb-18 03:30N 44°39' W 001°09'0 0.0
2018-Feb-18 03:00N 44°39' W 001°09'0 0.0
2018-Feb-18 02:31N 44°39' W 001°09'0 0.0
2018-Feb-18 02:00N 44°39' W 001°09'0 0.0
2018-Feb-18 01:30N 44°39' W 001°09'0 0.0
2018-Feb-18 01:01N 44°39' W 001°09'0 0.0
2018-Feb-18 00:30N 44°39' W 001°09'0 0.0
2018-Feb-18 00:00N 44°39' W 001°09'0 0.0
2018-Feb-17 23:30N 44°39' W 001°09'0 0.0
2018-Feb-17 23:01N 44°39' W 001°09'0 0.0
2018-Feb-17 22:30N 44°39' W 001°09'0 0.0
2018-Feb-17 22:00N 44°39' W 001°09'0 0.0
2018-Feb-17 21:31N 44°39' W 001°09'0 0.0
2018-Feb-17 21:00N 44°39' W 001°09'0 0.0
2018-Feb-17 20:30N 44°39' W 001°09'0 0.0
2018-Feb-17 19:59N 44°39' W 001°09'0 0.0
2018-Feb-17 19:31N 44°39' W 001°09'0 0.0
2018-Feb-17 19:01N 44°39' W 001°09'0 0.0
2018-Feb-17 18:30N 44°39' W 001°09'0 0.0
2018-Feb-17 18:00N 44°39' W 001°09'0 0.0
2018-Feb-17 17:31N 44°39' W 001°09'0 0.0
2018-Feb-17 17:01N 44°39' W 001°09'0 0.0
2018-Feb-17 16:30N 44°39' W 001°09'0 0.0
2018-Feb-17 16:00N 44°39' W 001°09'0 0.0
2018-Feb-17 15:30N 44°39' W 001°09'0 0.0
2018-Feb-17 15:00N 44°39' W 001°09'0 0.0
2018-Feb-17 14:30N 44°39' W 001°09'0 0.0
2018-Feb-17 14:00N 44°39' W 001°09'0 0.0
2018-Feb-17 13:30N 44°39' W 001°09'0 0.0
2018-Feb-17 13:00N 44°39' W 001°09'0 0.0
2018-Feb-17 12:30N 44°39' W 001°09'0 0.0
2018-Feb-17 12:01N 44°39' W 001°09'0 0.0
2018-Feb-17 11:30N 44°39' W 001°09'0 0.0
2018-Feb-17 11:00N 44°39' W 001°09'0 0.0
2018-Feb-17 10:31N 44°39' W 001°09'0 0.0
2018-Feb-17 10:00N 44°39' W 001°09'0 0.0
2018-Feb-17 09:30N 44°39' W 001°09'0 0.0
2018-Feb-17 09:00N 44°39' W 001°09'0 0.0
2018-Feb-17 08:30N 44°39' W 001°09'0 0.0
2018-Feb-17 07:59N 44°39' W 001°09'0 0.0
2018-Feb-17 07:28N 44°39' W 001°09'0 0.0
2018-Feb-17 07:00N 44°39' W 001°09'0 0.0
2018-Feb-17 06:30N 44°39' W 001°09'0 0.0
2018-Feb-17 06:01N 44°39' W 001°09'0 0.0
2018-Feb-17 05:30N 44°39' W 001°09'0 0.0
2018-Feb-17 05:00N 44°39' W 001°09'0 0.0
2018-Feb-17 04:30N 44°39' W 001°09'0 0.0
2018-Feb-17 04:00N 44°39' W 001°09'0 0.0
2018-Feb-17 03:30N 44°39' W 001°09'0 0.0
2018-Feb-17 03:01N 44°39' W 001°09'0 0.0
2018-Feb-17 02:31N 44°39' W 001°09'0 0.0
2018-Feb-17 02:00N 44°39' W 001°09'0 0.0
2018-Feb-17 01:31N 44°39' W 001°09'0 0.0
2018-Feb-17 01:00N 44°39' W 001°09'0 0.0
2018-Feb-17 00:30N 44°39' W 001°09'0 0.0
2018-Feb-17 00:00N 44°39' W 001°09'0 0.0
2018-Feb-16 23:30N 44°39' W 001°09'0 0.0
2018-Feb-16 23:00N 44°39' W 001°09'0 0.0
2018-Feb-16 22:31N 44°39' W 001°09'0 0.0
2018-Feb-16 22:00N 44°39' W 001°09'0 0.0
2018-Feb-16 21:31N 44°39' W 001°09'0 0.0
2018-Feb-16 21:00N 44°39' W 001°09'0 0.0
2018-Feb-16 20:31N 44°39' W 001°09'0 0.0
2018-Feb-16 20:00N 44°39' W 001°09'0 0.0
2018-Feb-16 19:30N 44°39' W 001°09'0 0.0
2018-Feb-16 19:00N 44°39' W 001°09'0 0.0
2018-Feb-16 18:29N 44°39' W 001°09'0 0.0
2018-Feb-16 18:00N 44°39' W 001°09'0 0.0
2018-Feb-16 17:30N 44°39' W 001°09'0 0.0
2018-Feb-16 17:00N 44°39' W 001°09'0 0.0
2018-Feb-16 16:30N 44°39' W 001°09'0 0.0
2018-Feb-16 16:00N 44°39' W 001°09'0 0.0
2018-Feb-16 15:30N 44°39' W 001°09'0 0.0
2018-Feb-16 15:00N 44°39' W 001°09'0 0.0
2018-Feb-16 14:30N 44°39' W 001°09'0 0.0
2018-Feb-16 14:00N 44°39' W 001°09'0 0.0
2018-Feb-16 13:30N 44°39' W 001°09'0 0.0
2018-Feb-16 13:00N 44°39' W 001°09'0 0.0
2018-Feb-16 12:30N 44°39' W 001°09'0 0.0
2018-Feb-16 12:00N 44°39' W 001°09'0 0.0
2018-Feb-16 11:31N 44°39' W 001°09'0 0.0
2018-Feb-16 10:57N 44°39' W 001°09'0 0.0
2018-Feb-16 10:31N 44°39' W 001°09'0 0.0
2018-Feb-16 10:00N 44°39' W 001°09'0 0.0
2018-Feb-16 09:30N 44°39' W 001°09'0 0.0
2018-Feb-16 09:00N 44°39' W 001°09'0 0.0
2018-Feb-16 08:30N 44°39' W 001°09'0 0.0
2018-Feb-16 08:00N 44°39' W 001°09'0 0.0
2018-Feb-16 07:30N 44°39' W 001°09'0 0.0
2018-Feb-16 07:00N 44°39' W 001°09'0 0.0
2018-Feb-16 06:30N 44°39' W 001°09'0 0.0
2018-Feb-16 06:00N 44°39' W 001°09'0 0.0
2018-Feb-16 05:30N 44°39' W 001°09'0 0.0
2018-Feb-16 05:00N 44°39' W 001°09'0 0.0
2018-Feb-16 04:31N 44°39' W 001°09'0 0.0
2018-Feb-16 04:00N 44°39' W 001°09'0 0.0
2018-Feb-16 03:30N 44°39' W 001°09'0 0.0
2018-Feb-16 03:00N 44°39' W 001°09'0 0.0
2018-Feb-16 02:30N 44°39' W 001°09'0 0.0
2018-Feb-16 01:58N 44°39' W 001°09'0 0.0
2018-Feb-16 01:30N 44°39' W 001°09'0 0.0
2018-Feb-16 01:00N 44°39' W 001°09'0 0.0
2018-Feb-16 00:30N 44°39' W 001°09'0 0.0
2018-Feb-16 00:00N 44°39' W 001°09'0 0.0
2018-Feb-15 23:30N 44°39' W 001°09'0 0.0
2018-Feb-15 23:00N 44°39' W 001°09'0 0.0
2018-Feb-15 22:30N 44°39' W 001°09'0 0.0
2018-Feb-15 22:01N 44°39' W 001°09'0 0.0
2018-Feb-15 21:30N 44°39' W 001°09'0 0.0
2018-Feb-15 21:00N 44°39' W 001°09'0 0.0
2018-Feb-15 20:30N 44°39' W 001°09'0 0.0
2018-Feb-15 20:00N 44°39' W 001°09'0 0.0
2018-Feb-15 19:30N 44°39' W 001°09'0 0.0
2018-Feb-15 19:00N 44°39' W 001°09'0 0.0
2018-Feb-15 18:30N 44°39' W 001°09'0 0.0
2018-Feb-15 18:00N 44°39' W 001°09'0 0.0
2018-Feb-15 17:30N 44°39' W 001°09'0 0.0
2018-Feb-15 17:00N 44°39' W 001°09'0 0.0
2018-Feb-15 16:30N 44°39' W 001°09'0 0.0
2018-Feb-15 16:00N 44°39' W 001°09'0 0.0
2018-Feb-15 15:30N 44°39' W 001°09'0 0.0
2018-Feb-15 15:00N 44°39' W 001°09'0 0.0
2018-Feb-15 14:30N 44°39' W 001°09'0 0.0
2018-Feb-15 14:00N 44°39' W 001°09'0 0.0
2018-Feb-15 13:30N 44°39' W 001°09'0 0.0
2018-Feb-15 13:00N 44°39' W 001°09'0 0.0
2018-Feb-15 12:30N 44°39' W 001°09'0 0.0
2018-Feb-15 12:00N 44°39' W 001°09'0 0.0
2018-Feb-15 11:30N 44°39' W 001°09'0 0.0
2018-Feb-15 11:00N 44°39' W 001°09'0 0.0
2018-Feb-15 10:30N 44°39' W 001°09'0 0.0
2018-Feb-15 10:00N 44°39' W 001°09'0 0.0
2018-Feb-15 09:30N 44°39' W 001°09'  
Track history (hours):
 
Tides and Currents Weather Stations Pressure Air Temp Water Temp Dewpoint Dewpoint Depression Visibility Wind Speed Wind Dir Waves Ship Positions

F/V Si

Last reported at 2018-Feb-25 09:30 UTC. Time now 2018-Feb-25 09:56 UTC.
Position N 44°56' W 001°23'.

Type: Fishing. MMSI: 227442000.

Date/timePositionNaut miles runAvg speedWind from/ knotsBaromVisibWave heightAir tempDewpointWater temp
2018-Feb-25 09:30N 44°56' W 001°23'4 0.1
2018-Feb-23 10:29N 44°54' W 001°28'2 1.0
2018-Feb-23 08:56N 44°54' W 001°26'6 1.7
2018-Feb-23 05:09N 44°57' W 001°34'2 4.9
2018-Feb-23 04:42N 44°55' W 001°34'0 1.8
2018-Feb-23 04:29N 44°54' W 001°34'0 0.3
2018-Feb-23 04:00N 44°54' W 001°34'10 1.4
2018-Feb-22 20:45N 44°55' W 001°20'1 5.0
2018-Feb-22 20:31N 44°55' W 001°18'1 1.9
2018-Feb-22 20:01N 44°55' W 001°20'1 2.1
2018-Feb-22 19:29N 44°55' W 001°21'3 6.0
2018-Feb-22 19:00N 44°55' W 001°25'6 7.9
2018-Feb-22 18:13N 44°57' W 001°34'4 1.4
2018-Feb-22 15:16N 44°54' W 001°29'2 8.4
2018-Feb-22 15:00N 44°56' W 001°29'2 1.2
2018-Feb-22 13:46N 44°54' W 001°28'2 2.2
2018-Feb-22 12:57N 44°53' W 001°27'2 3.6
2018-Feb-22 12:30N 44°53' W 001°24'4 8.4
2018-Feb-22 12:00N 44°55' W 001°19'2 3.4
2018-Feb-22 11:30N 44°56' W 001°17'1 2.5
2018-Feb-22 11:00N 44°56' W 001°18'1 0.8
2018-Feb-22 09:39N 44°55' W 001°20'1 8.9
2018-Feb-22 09:30N 44°56' W 001°19'2 4.5
2018-Feb-22 09:00N 44°58' W 001°17'1 2.8
2018-Feb-22 08:30N 44°58' W 001°19'3 1.7
2018-Feb-22 06:30N 44°56' W 001°23'4 7.9
2018-Feb-22 06:00N 44°54' W 001°28'3 1.6
2018-Feb-22 04:09N 44°55' W 001°31'0 1.6
2018-Feb-22 03:57N 44°55' W 001°32'1 1.6
2018-Feb-22 03:24N 44°54' W 001°32'1 1.8
2018-Feb-22 03:00N 44°54' W 001°32'1 1.5
2018-Feb-22 02:30N 44°53' W 001°32'1 1.2
2018-Feb-22 02:00N 44°52' W 001°33'3 5.8
2018-Feb-22 01:30N 44°55' W 001°32'1 0.7
2018-Feb-22 00:35N 44°56' W 001°32'0 4.5
2018-Feb-22 00:30N 44°56' W 001°33'2 4.2
2018-Feb-22 00:00N 44°54' W 001°34'2 4.3
2018-Feb-21 23:30N 44°52' W 001°36'1 0.6
2018-Feb-21 22:04N 44°51' W 001°36'0 1.4
2018-Feb-21 21:49N 44°51' W 001°35'1 1.4
2018-Feb-21 21:13N 44°52' W 001°34'0 1.5
2018-Feb-21 21:00N 44°52' W 001°34'1 1.6
2018-Feb-21 20:30N 44°53' W 001°33'1 1.5
2018-Feb-21 20:00N 44°53' W 001°33'2 1.4
2018-Feb-21 18:56N 44°55' W 001°32'0 0.2
2018-Feb-21 16:26N 44°55' W 001°31'0 1.1
2018-Feb-21 16:00N 44°55' W 001°32'1 1.0
2018-Feb-21 15:26N 44°55' W 001°32'6 8.0
2018-Feb-21 14:42N 44°55' W 001°24'2 8.3
2018-Feb-21 14:30N 44°55' W 001°21'0 0.3
2018-Feb-21 13:57N 44°55' W 001°21'3 6.3
2018-Feb-21 13:30N 44°56' W 001°18'2 4.4
2018-Feb-21 13:00N 44°58' W 001°16'4 4.7
2018-Feb-21 12:07N 44°56' W 001°22'1 8.0
2018-Feb-21 11:58N 44°57' W 001°21'4 8.7
2018-Feb-21 11:30N 45°01' W 001°20'2 2.7
2018-Feb-21 10:35N 44°59' W 001°19'0 1.9
2018-Feb-21 10:20N 44°58' W 001°19'1 2.5
2018-Feb-21 09:57N 44°57' W 001°19'1 2.4
2018-Feb-21 09:26N 44°56' W 001°20'2 4.9
2018-Feb-21 09:00N 44°56' W 001°17'1 1.6
2018-Feb-21 08:30N 44°55' W 001°17'1 2.8
2018-Feb-21 07:58N 44°56' W 001°16'1 2.9
2018-Feb-21 07:30N 44°54' W 001°15'1 2.6
2018-Feb-21 07:00N 44°53' W 001°16'1 2.3
2018-Feb-21 06:30N 44°52' W 001°15'1 2.6
2018-Feb-21 06:00N 44°51' W 001°16'1 2.7
2018-Feb-21 05:31N 44°49' W 001°16'1 2.2
2018-Feb-21 05:00N 44°48' W 001°16'2 4.9
2018-Feb-21 04:30N 44°50' W 001°19'2 3.1
2018-Feb-21 04:00N 44°48' W 001°19'0 0.7
2018-Feb-21 03:30N 44°48' W 001°19'1 1.3
2018-Feb-21 03:00N 44°49' W 001°19'1 1.3
2018-Feb-21 02:30N 44°50' W 001°19'1 1.2
2018-Feb-21 02:00N 44°50' W 001°19'1 1.2
2018-Feb-21 01:23N 44°51' W 001°19'0 1.2
2018-Feb-21 01:01N 44°51' W 001°19'1 1.2
2018-Feb-21 00:30N 44°52' W 001°18'1 1.3
2018-Feb-21 00:00N 44°53' W 001°18'1 1.4
2018-Feb-20 23:30N 44°53' W 001°18'1 1.6
2018-Feb-20 23:00N 44°54' W 001°18'1 1.6
2018-Feb-20 22:31N 44°55' W 001°18'1 1.5
2018-Feb-20 22:00N 44°56' W 001°18'1 1.6
2018-Feb-20 21:30N 44°56' W 001°18'1 1.4
2018-Feb-20 21:00N 44°57' W 001°18'1 1.3
2018-Feb-20 20:30N 44°58' W 001°18'1 1.4
2018-Feb-20 20:00N 44°59' W 001°18'1 1.3
2018-Feb-20 19:30N 44°59' W 001°18'1 1.3
2018-Feb-20 19:00N 44°60' W 001°18'1 1.7
2018-Feb-20 18:24N 45°01' W 001°17'4 5.4
2018-Feb-20 17:38N 44°57' W 001°15'1 7.1
2018-Feb-20 17:30N 44°56' W 001°15'4 7.2
2018-Feb-20 17:00N 44°52' W 001°16'4 7.1
2018-Feb-20 16:30N 44°49' W 001°16'3 6.4
2018-Feb-20 16:00N 44°52' W 001°15'4 7.8
2018-Feb-20 15:30N 44°56' W 001°16'4 8.5
2018-Feb-20 15:00N 44°60' W 001°16'2 1.7
2018-Feb-20 13:51N 44°58' W 001°17'1 2.9
2018-Feb-20 13:30N 44°57' W 001°17'2 4.5
2018-Feb-20 13:00N 44°55' W 001°17'1 2.3
2018-Feb-20 12:30N 44°55' W 001°16'0 1.0
2018-Feb-20 12:00N 44°54' W 001°16'4 8.6
2018-Feb-20 11:30N 44°59' W 001°16'0 0.3
2018-Feb-20 10:06N 44°59' W 001°15'0 3.1
2018-Feb-20 09:59N 44°58' W 001°15'2 3.0
2018-Feb-20 09:22N 44°57' W 001°16'2 4.3
2018-Feb-20 09:00N 44°56' W 001°18'2 4.9
2018-Feb-20 08:30N 44°58' W 001°20'3 1.9
2018-Feb-20 07:05N 44°56' W 001°17'0 2.1
2018-Feb-20 07:00N 44°56' W 001°17'1 1.1
2018-Feb-20 06:30N 44°57' W 001°17'1 1.2
2018-Feb-20 06:00N 44°57' W 001°17'1 1.2
2018-Feb-20 05:30N 44°58' W 001°17'1 1.2
2018-Feb-20 05:01N 44°58' W 001°17'1 1.1
2018-Feb-20 04:30N 44°59' W 001°17'0 1.0
2018-Feb-20 04:00N 44°59' W 001°18'0 0.9
2018-Feb-20 03:30N 44°60' W 001°18'0 0.9
2018-Feb-20 03:00N 45°00' W 001°18'1 2.4
2018-Feb-20 02:23N 44°59' W 001°18'2 6.0
2018-Feb-20 02:00N 44°59' W 001°15'3 5.2
2018-Feb-20 01:29N 44°56' W 001°15'2 4.1
2018-Feb-20 01:00N 44°58' W 001°17'4 6.6
2018-Feb-20 00:28N 45°01' W 001°16'6 5.5
2018-Feb-19 23:27N 44°56' W 001°16'1 1.9
2018-Feb-19 23:00N 44°55' W 001°16'2 4.2
2018-Feb-19 22:30N 44°53' W 001°17'4 7.1
2018-Feb-19 22:00N 44°50' W 001°17'4 7.0
2018-Feb-19 21:30N 44°46' W 001°18'3 7.0
2018-Feb-19 21:00N 44°43' W 001°18'3 6.8
2018-Feb-19 20:30N 44°39' W 001°19'3 6.6
2018-Feb-19 20:00N 44°36' W 001°19'3 5.1
2018-Feb-19 19:30N 44°34' W 001°16'4 8.3
2018-Feb-19 19:00N 44°38' W 001°14'4 7.5
2018-Feb-19 18:31N 44°40' W 001°09'1 1.5
2018-Feb-19 18:00N 44°39' W 001°09'0 0.0
2018-Feb-19 17:30N 44°39' W 001°09'0 0.0
2018-Feb-19 17:00N 44°39' W 001°09'0 0.0
2018-Feb-19 16:30N 44°39' W 001°09'0 0.0
2018-Feb-19 16:00N 44°39' W 001°09'0 0.0
2018-Feb-19 15:30N 44°39' W 001°09'0 0.0
2018-Feb-19 15:00N 44°39' W 001°09'0 0.0
2018-Feb-19 14:30N 44°39' W 001°09'0 0.0
2018-Feb-19 14:00N 44°39' W 001°09'0 0.0
2018-Feb-19 13:30N 44°39' W 001°09'0 0.0
2018-Feb-19 13:00N 44°39' W 001°09'0 0.0
2018-Feb-19 12:30N 44°39' W 001°09'0 0.0
2018-Feb-19 12:00N 44°39' W 001°09'0 0.0
2018-Feb-19 11:30N 44°39' W 001°09'0 0.0
2018-Feb-19 11:00N 44°39' W 001°09'0 0.0
2018-Feb-19 10:30N 44°39' W 001°09'0 0.0
2018-Feb-19 10:00N 44°39' W 001°09'0 0.0
2018-Feb-19 09:30N 44°39' W 001°09'0 0.0
2018-Feb-19 09:00N 44°39' W 001°09'0 0.0
2018-Feb-19 08:30N 44°39' W 001°09'0 0.0
2018-Feb-19 08:00N 44°39' W 001°09'0 0.0
2018-Feb-19 07:30N 44°39' W 001°09'0 0.0
2018-Feb-19 07:00N 44°39' W 001°09'0 0.0
2018-Feb-19 06:30N 44°39' W 001°09'0 0.0
2018-Feb-19 06:00N 44°39' W 001°09'0 0.1
2018-Feb-19 05:30N 44°39' W 001°09'3 6.9
2018-Feb-19 05:00N 44°39' W 001°14'5 9.2
2018-Feb-19 04:30N 44°34' W 001°16'3 5.2
2018-Feb-19 04:00N 44°33' W 001°19'0 0.7
2018-Feb-19 03:30N 44°33' W 001°19'0 0.7
2018-Feb-19 03:01N 44°33' W 001°20'0 0.5
2018-Feb-19 02:30N 44°33' W 001°20'0 0.5
2018-Feb-19 02:01N 44°33' W 001°20'2 4.3
2018-Feb-19 01:30N 44°32' W 001°23'2 4.4
2018-Feb-19 01:00N 44°30' W 001°25'2 4.4
2018-Feb-19 00:31N 44°29' W 001°28'2 4.1
2018-Feb-19 00:00N 44°28' W 001°30'2 4.4
2018-Feb-18 23:30N 44°27' W 001°33'2 4.2
2018-Feb-18 23:01N 44°27' W 001°36'2 2.9
2018-Feb-18 22:29N 44°26' W 001°38'1 1.3
2018-Feb-18 21:59N 44°26' W 001°38'1 1.6
2018-Feb-18 21:29N 44°25' W 001°37'1 1.7
2018-Feb-18 21:00N 44°24' W 001°37'1 1.6
2018-Feb-18 20:30N 44°23' W 001°37'3 4.6
2018-Feb-18 19:46N 44°27' W 001°36'0 1.3
2018-Feb-18 19:30N 44°26' W 001°36'1 1.7
2018-Feb-18 19:00N 44°26' W 001°36'1 1.6
2018-Feb-18 18:30N 44°25' W 001°37'2 2.1
2018-Feb-18 17:21N 44°25' W 001°33'0 1.0
2018-Feb-18 17:00N 44°25' W 001°33'2 0.7
2018-Feb-18 13:40N 44°27' W 001°35'0 2.1
2018-Feb-18 13:26N 44°27' W 001°34'0 1.1
2018-Feb-18 13:00N 44°27' W 001°34'1 1.1
2018-Feb-18 12:31N 44°27' W 001°34'1 1.0
2018-Feb-18 12:00N 44°27' W 001°35'1 1.0
2018-Feb-18 11:31N 44°27' W 001°36'0 0.6
2018-Feb-18 11:00N 44°27' W 001°36'1 2.2
2018-Feb-18 10:24N 44°26' W 001°37'1 3.9
2018-Feb-18 10:00N 44°25' W 001°37'2 3.2
2018-Feb-18 09:13N 44°26' W 001°34'2 7.4
2018-Feb-18 08:59N 44°27' W 001°32'4 7.6
2018-Feb-18 08:30N 44°29' W 001°28'4 7.7
2018-Feb-18 08:00N 44°32' W 001°24'3 6.9
2018-Feb-18 07:30N 44°33' W 001°20'4 7.0
2018-Feb-18 07:00N 44°35' W 001°15'5 9.1
2018-Feb-18 06:30N 44°39' W 001°13'3 6.7
2018-Feb-18 06:00N 44°40' W 001°09'0 0.2
2018-Feb-18 05:30N 44°39' W 001°09'0 0.2
2018-Feb-18 05:00N 44°39' W 001°09'0 0.0
2018-Feb-18 04:30N 44°39' W 001°09'0 0.0
2018-Feb-18 03:59N 44°39' W 001°09'0 0.0
2018-Feb-18 03:30N 44°39' W 001°09'0 0.0
2018-Feb-18 03:00N 44°39' W 001°09'0 0.0
2018-Feb-18 02:31N 44°39' W 001°09'0 0.0
2018-Feb-18 02:00N 44°39' W 001°09'0 0.0
2018-Feb-18 01:30N 44°39' W 001°09'0 0.0
2018-Feb-18 01:01N 44°39' W 001°09'0 0.0
2018-Feb-18 00:30N 44°39' W 001°09'0 0.0
2018-Feb-18 00:00N 44°39' W 001°09'0 0.0
2018-Feb-17 23:30N 44°39' W 001°09'0 0.0
2018-Feb-17 23:01N 44°39' W 001°09'0 0.0
2018-Feb-17 22:30N 44°39' W 001°09'0 0.0
2018-Feb-17 22:00N 44°39' W 001°09'0 0.0
2018-Feb-17 21:31N 44°39' W 001°09'0 0.0
2018-Feb-17 21:00N 44°39' W 001°09'0 0.0
2018-Feb-17 20:30N 44°39' W 001°09'0 0.0
2018-Feb-17 19:59N 44°39' W 001°09'0 0.0
2018-Feb-17 19:31N 44°39' W 001°09'0 0.0
2018-Feb-17 19:01N 44°39' W 001°09'0 0.0
2018-Feb-17 18:30N 44°39' W 001°09'0 0.0
2018-Feb-17 18:00N 44°39' W 001°09'0 0.0
2018-Feb-17 17:31N 44°39' W 001°09'0 0.0
2018-Feb-17 17:01N 44°39' W 001°09'0 0.0
2018-Feb-17 16:30N 44°39' W 001°09'0 0.0
2018-Feb-17 16:00N 44°39' W 001°09'0 0.0
2018-Feb-17 15:30N 44°39' W 001°09'0 0.0
2018-Feb-17 15:00N 44°39' W 001°09'0 0.0
2018-Feb-17 14:30N 44°39' W 001°09'0 0.0
2018-Feb-17 14:00N 44°39' W 001°09'0 0.0
2018-Feb-17 13:30N 44°39' W 001°09'0 0.0
2018-Feb-17 13:00N 44°39' W 001°09'0 0.0
2018-Feb-17 12:30N 44°39' W 001°09'0 0.0
2018-Feb-17 12:01N 44°39' W 001°09'0 0.0
2018-Feb-17 11:30N 44°39' W 001°09'0 0.0
2018-Feb-17 11:00N 44°39' W 001°09'0 0.0
2018-Feb-17 10:31N 44°39' W 001°09'0 0.0
2018-Feb-17 10:00N 44°39' W 001°09'0 0.0
2018-Feb-17 09:30N 44°39' W 001°09'0 0.0
2018-Feb-17 09:00N 44°39' W 001°09'0 0.0
2018-Feb-17 08:30N 44°39' W 001°09'0 0.0
2018-Feb-17 07:59N 44°39' W 001°09'0 0.0
2018-Feb-17 07:28N 44°39' W 001°09'0 0.0
2018-Feb-17 07:00N 44°39' W 001°09'0 0.0
2018-Feb-17 06:30N 44°39' W 001°09'0 0.0
2018-Feb-17 06:01N 44°39' W 001°09'0 0.0
2018-Feb-17 05:30N 44°39' W 001°09'0 0.0
2018-Feb-17 05:00N 44°39' W 001°09'0 0.0
2018-Feb-17 04:30N 44°39' W 001°09'0 0.0
2018-Feb-17 04:00N 44°39' W 001°09'0 0.0
2018-Feb-17 03:30N 44°39' W 001°09'0 0.0
2018-Feb-17 03:01N 44°39' W 001°09'0 0.0
2018-Feb-17 02:31N 44°39' W 001°09'0 0.0
2018-Feb-17 02:00N 44°39' W 001°09'0 0.0
2018-Feb-17 01:31N 44°39' W 001°09'0 0.0
2018-Feb-17 01:00N 44°39' W 001°09'0 0.0
2018-Feb-17 00:30N 44°39' W 001°09'0 0.0
2018-Feb-17 00:00N 44°39' W 001°09'0 0.0
2018-Feb-16 23:30N 44°39' W 001°09'0 0.0
2018-Feb-16 23:00N 44°39' W 001°09'0 0.0
2018-Feb-16 22:31N 44°39' W 001°09'0 0.0
2018-Feb-16 22:00N 44°39' W 001°09'0 0.0
2018-Feb-16 21:31N 44°39' W 001°09'0 0.0
2018-Feb-16 21:00N 44°39' W 001°09'0 0.0
2018-Feb-16 20:31N 44°39' W 001°09'0 0.0
2018-Feb-16 20:00N 44°39' W 001°09'0 0.0
2018-Feb-16 19:30N 44°39' W 001°09'0 0.0
2018-Feb-16 19:00N 44°39' W 001°09'0 0.0
2018-Feb-16 18:29N 44°39' W 001°09'0 0.0
2018-Feb-16 18:00N 44°39' W 001°09'0 0.0
2018-Feb-16 17:30N 44°39' W 001°09'0 0.0
2018-Feb-16 17:00N 44°39' W 001°09'0 0.0
2018-Feb-16 16:30N 44°39' W 001°09'0 0.0
2018-Feb-16 16:00N 44°39' W 001°09'0 0.0
2018-Feb-16 15:30N 44°39' W 001°09'0 0.0
2018-Feb-16 15:00N 44°39' W 001°09'0 0.0
2018-Feb-16 14:30N 44°39' W 001°09'0 0.0
2018-Feb-16 14:00N 44°39' W 001°09'0 0.0
2018-Feb-16 13:30N 44°39' W 001°09'0 0.0
2018-Feb-16 13:00N 44°39' W 001°09'0 0.0
2018-Feb-16 12:30N 44°39' W 001°09'0 0.0
2018-Feb-16 12:00N 44°39' W 001°09'0 0.0
2018-Feb-16 11:31N 44°39' W 001°09'0 0.0
2018-Feb-16 10:57N 44°39' W 001°09'0 0.0
2018-Feb-16 10:31N 44°39' W 001°09'0 0.0
2018-Feb-16 10:00N 44°39' W 001°09'0 0.0
2018-Feb-16 09:30N 44°39' W 001°09'0 0.0
2018-Feb-16 09:00N 44°39' W 001°09'0 0.0
2018-Feb-16 08:30N 44°39' W 001°09'0 0.0
2018-Feb-16 08:00N 44°39' W 001°09'0 0.0
2018-Feb-16 07:30N 44°39' W 001°09'0 0.0
2018-Feb-16 07:00N 44°39' W 001°09'0 0.0
2018-Feb-16 06:30N 44°39' W 001°09'0 0.0
2018-Feb-16 06:00N 44°39' W 001°09'0 0.0
2018-Feb-16 05:30N 44°39' W 001°09'0 0.0
2018-Feb-16 05:00N 44°39' W 001°09'0 0.0
2018-Feb-16 04:31N 44°39' W 001°09'0 0.0
2018-Feb-16 04:00N 44°39' W 001°09'0 0.0
2018-Feb-16 03:30N 44°39' W 001°09'0 0.0
2018-Feb-16 03:00N 44°39' W 001°09'0 0.0
2018-Feb-16 02:30N 44°39' W 001°09'0 0.0
2018-Feb-16 01:58N 44°39' W 001°09'0 0.0
2018-Feb-16 01:30N 44°39' W 001°09'0 0.0
2018-Feb-16 01:00N 44°39' W 001°09'0 0.0
2018-Feb-16 00:30N 44°39' W 001°09'0 0.0
2018-Feb-16 00:00N 44°39' W 001°09'0 0.0
2018-Feb-15 23:30N 44°39' W 001°09'0 0.0
2018-Feb-15 23:00N 44°39' W 001°09'0 0.0
2018-Feb-15 22:30N 44°39' W 001°09'0 0.0
2018-Feb-15 22:01N 44°39' W 001°09'0 0.0
2018-Feb-15 21:30N 44°39' W 001°09'0 0.0
2018-Feb-15 21:00N 44°39' W 001°09'0 0.0
2018-Feb-15 20:30N 44°39' W 001°09'0 0.0
2018-Feb-15 20:00N 44°39' W 001°09'0 0.0
2018-Feb-15 19:30N 44°39' W 001°09'0 0.0
2018-Feb-15 19:00N 44°39' W 001°09'0 0.0
2018-Feb-15 18:30N 44°39' W 001°09'0 0.0
2018-Feb-15 18:00N 44°39' W 001°09'0 0.0
2018-Feb-15 17:30N 44°39' W 001°09'0 0.0
2018-Feb-15 17:00N 44°39' W 001°09'0 0.0
2018-Feb-15 16:30N 44°39' W 001°09'0 0.0
2018-Feb-15 16:00N 44°39' W 001°09'0 0.0
2018-Feb-15 15:30N 44°39' W 001°09'0 0.0
2018-Feb-15 15:00N 44°39' W 001°09'0 0.0
2018-Feb-15 14:30N 44°39' W 001°09'0 0.0
2018-Feb-15 14:00N 44°39' W 001°09'0 0.0
2018-Feb-15 13:30N 44°39' W 001°09'0 0.0
2018-Feb-15 13:00N 44°39' W 001°09'0 0.0
2018-Feb-15 12:30N 44°39' W 001°09'0 0.0
2018-Feb-15 12:00N 44°39' W 001°09'0 0.0
2018-Feb-15 11:30N 44°39' W 001°09'0 0.0
2018-Feb-15 11:00N 44°39' W 001°09'0 0.0
2018-Feb-15 10:30N 44°39' W 001°09'0 0.0
2018-Feb-15 10:00N 44°39' W 001°09'0 0.0
2018-Feb-15 09:30N 44°39' W 001°09'  

Dump ship's entire track history